createdAt,value
2023-04-05T00:01:53.450Z,44.00
2023-04-05T00:08:13.380Z,43.85
2023-04-05T00:11:14.877Z,43.34
2023-04-05T00:14:16.369Z,43.47
2023-04-05T00:17:18.083Z,42.99
2023-04-05T00:20:20.094Z,43.03
2023-04-05T00:23:22.690Z,42.81
2023-04-05T00:26:24.804Z,43.07
2023-04-05T00:29:30.300Z,43.44
2023-04-05T00:32:31.820Z,43.25
2023-04-05T00:35:33.451Z,43.50
2023-04-05T00:38:35.007Z,43.39
2023-04-05T00:41:36.757Z,43.50
2023-04-05T00:44:38.293Z,43.19
2023-04-05T00:47:42.318Z,43.31
2023-04-05T00:50:43.936Z,43.42
2023-04-05T00:53:46.104Z,43.58
2023-04-05T00:56:47.634Z,43.67
2023-04-05T00:59:49.106Z,44.04
2023-04-05T01:02:58.210Z,44.05
2023-04-05T01:06:09.921Z,43.94
2023-04-05T01:09:16.673Z,44.11
2023-04-05T01:12:20.872Z,43.98
2023-04-05T01:15:22.296Z,44.45
2023-04-05T01:18:24.517Z,44.26
2023-04-05T01:21:29.492Z,44.44
2023-04-05T01:24:40.985Z,44.48
2023-04-05T01:27:57.896Z,44.90
2023-04-05T01:31:18.343Z,44.24
2023-04-05T01:34:19.764Z,44.14
2023-04-05T01:37:27.849Z,44.70
2023-04-05T01:40:33.616Z,45.15
2023-04-05T01:43:35.068Z,45.37
2023-04-05T01:46:36.646Z,45.78
2023-04-05T01:49:38.216Z,46.18
2023-04-05T01:52:39.754Z,45.95
2023-04-05T01:55:41.279Z,45.81
2023-04-05T01:58:43.407Z,45.91
2023-04-05T02:01:44.925Z,45.25
2023-04-05T02:04:46.395Z,44.67
2023-04-05T02:07:47.876Z,44.35
2023-04-05T02:10:49.842Z,44.25
2023-04-05T02:13:51.493Z,44.23
2023-04-05T02:16:56.622Z,44.37
2023-04-05T02:20:09.952Z,44.58
2023-04-05T02:23:11.690Z,44.98
2023-04-05T02:26:13.227Z,44.52
2023-04-05T02:29:14.710Z,44.34
2023-04-05T02:32:16.880Z,44.35
2023-04-05T02:35:19.207Z,44.29
2023-04-05T02:38:20.928Z,44.95
2023-04-05T02:41:23.807Z,44.46
2023-04-05T02:44:25.727Z,45.08
2023-04-05T02:47:28.652Z,45.02
2023-04-05T02:50:33.372Z,45.68
2023-04-05T02:53:35.308Z,45.50
2023-04-05T02:56:40.502Z,45.52
2023-04-05T02:59:46.931Z,45.06
2023-04-05T03:02:48.456Z,44.80
2023-04-05T03:06:01.432Z,44.95
2023-04-05T03:09:09.221Z,45.46
2023-04-05T03:12:12.080Z,45.49
2023-04-05T03:15:16.405Z,45.50
2023-04-05T03:18:19.428Z,45.62
2023-04-05T03:21:21.774Z,45.86
2023-04-05T03:24:32.824Z,45.43
2023-04-05T03:27:38.446Z,45.96
2023-04-05T03:30:44.434Z,46.78
2023-04-05T03:33:52.059Z,46.96
2023-04-05T03:36:53.676Z,47.34
2023-04-05T03:40:06.771Z,47.70
2023-04-05T03:43:09.674Z,47.94
2023-04-05T03:46:11.979Z,45.27
2023-04-05T03:49:13.843Z,44.97
2023-04-05T03:52:15.442Z,44.81
2023-04-05T03:55:19.770Z,45.07
2023-04-05T03:58:22.785Z,45.20
2023-04-05T04:01:24.408Z,44.75
2023-04-05T04:04:26.418Z,45.28
2023-04-05T04:07:28.302Z,45.29
2023-04-05T04:10:29.791Z,45.27
2023-04-05T04:13:33.120Z,46.23
2023-04-05T04:16:38.797Z,45.91
2023-04-05T04:19:58.452Z,45.99
2023-04-05T04:23:20.528Z,46.15
2023-04-05T04:26:37.448Z,46.24
2023-04-05T04:29:56.529Z,46.04
2023-04-05T04:33:09.231Z,45.63
2023-04-05T04:36:42.983Z,45.53
2023-04-05T04:39:57.041Z,45.73
2023-04-05T04:43:33.928Z,45.86
2023-04-05T04:46:55.736Z,45.46
2023-04-05T04:50:21.168Z,45.92
2023-04-05T04:53:24.172Z,45.73
2023-04-05T04:56:26.194Z,45.96
2023-04-05T04:59:29.672Z,45.94
2023-04-05T05:02:31.557Z,45.53
2023-04-05T05:05:33.097Z,45.89
2023-04-05T05:08:34.973Z,45.15
2023-04-05T05:11:36.438Z,45.47
2023-04-05T05:14:41.195Z,45.22
2023-04-05T05:17:42.828Z,45.40
2023-04-05T05:20:44.434Z,45.32
2023-04-05T05:23:46.980Z,45.30
2023-04-05T05:26:48.532Z,45.61
2023-04-05T05:29:52.425Z,45.44
2023-04-05T05:32:54.174Z,45.62
2023-04-05T05:35:55.783Z,45.27
2023-04-05T05:38:57.304Z,45.40
2023-04-05T05:41:58.926Z,45.54
2023-04-05T05:45:05.727Z,45.26
2023-04-05T05:48:07.261Z,44.90
2023-04-05T05:51:11.690Z,44.86
2023-04-05T05:54:13.265Z,44.61
2023-04-05T05:57:14.945Z,44.34
2023-04-05T06:00:17.061Z,43.94
2023-04-05T06:03:19.245Z,43.49
2023-04-05T06:06:22.290Z,43.78
2023-04-05T06:09:23.827Z,44.08
2023-04-05T06:12:28.617Z,44.12
2023-04-05T06:15:31.643Z,43.27
2023-04-05T06:18:33.155Z,42.92
2023-04-05T06:21:34.700Z,42.41
2023-04-05T06:24:36.195Z,42.30
2023-04-05T06:27:37.729Z,42.12
2023-04-05T06:30:39.541Z,42.07
2023-04-05T06:33:41.709Z,41.79
2023-04-05T06:36:43.219Z,41.11
2023-04-05T06:39:44.643Z,40.75
2023-04-05T06:42:46.351Z,40.26
2023-04-05T06:45:52.177Z,40.76
2023-04-05T06:48:53.686Z,40.94
2023-04-05T06:51:55.465Z,41.22
2023-04-05T06:54:56.987Z,40.99
2023-04-05T06:57:58.427Z,41.25
2023-04-05T07:01:01.275Z,41.75
2023-04-05T07:04:02.834Z,41.60
2023-04-05T07:07:04.433Z,40.95
2023-04-05T07:10:06.552Z,39.79
2023-04-05T07:13:08.052Z,38.97
2023-04-05T07:16:09.594Z,38.86
2023-04-05T07:19:11.322Z,38.13
2023-04-05T07:22:12.890Z,37.49
2023-04-05T07:25:14.494Z,37.38
2023-04-05T07:28:16.028Z,37.20
2023-04-05T07:31:17.597Z,36.83
2023-04-05T07:34:24.386Z,36.60
2023-04-05T07:37:27.499Z,36.11
2023-04-05T07:40:29.084Z,35.99
2023-04-05T07:43:30.639Z,36.11
2023-04-05T07:46:32.128Z,35.75
2023-04-05T07:49:33.656Z,36.15
2023-04-05T07:52:35.272Z,35.65
2023-04-05T07:55:39.560Z,35.37
2023-04-05T07:58:42.093Z,35.21
2023-04-05T08:01:43.646Z,34.86
2023-04-05T08:04:46.076Z,34.89
2023-04-05T08:07:48.519Z,34.60
2023-04-05T08:10:50.318Z,34.31
2023-04-05T08:13:53.665Z,33.87
2023-04-05T08:16:55.209Z,34.19
2023-04-05T08:19:56.821Z,33.89
2023-04-05T08:22:58.414Z,33.98
2023-04-05T08:25:59.820Z,34.41
2023-04-05T08:29:01.438Z,34.26
2023-04-05T08:32:03.081Z,34.65
2023-04-05T08:35:05.087Z,34.81
2023-04-05T08:38:07.261Z,33.92
2023-04-05T08:41:16.781Z,34.09
2023-04-05T08:44:22.536Z,34.38
2023-04-05T08:47:24.224Z,34.42
2023-04-05T08:50:27.277Z,34.57
2023-04-05T08:53:29.190Z,34.27
2023-04-05T08:56:35.200Z,34.21
2023-04-05T08:59:39.964Z,33.96
2023-04-05T09:02:45.004Z,34.21
2023-04-05T09:05:49.810Z,34.04
2023-04-05T09:08:51.664Z,34.77
2023-04-05T09:11:53.386Z,33.17
2023-04-05T09:14:55.998Z,32.67
2023-04-05T09:17:57.620Z,34.61
2023-04-05T09:21:04.817Z,35.02
2023-04-05T09:24:06.775Z,33.95
2023-04-05T09:27:18.839Z,33.11
2023-04-05T09:30:28.053Z,32.01
2023-04-05T09:33:29.666Z,32.21
2023-04-05T09:36:33.583Z,32.75
2023-04-05T09:39:35.111Z,32.23
2023-04-05T09:42:54.502Z,32.49
2023-04-05T09:45:56.047Z,32.92
2023-04-05T09:48:57.815Z,33.26
2023-04-05T09:51:59.366Z,33.20
2023-04-05T09:55:04.884Z,33.17
2023-04-05T09:58:12.006Z,33.58
2023-04-05T10:01:17.316Z,33.08
2023-04-05T10:04:24.706Z,33.69
2023-04-05T10:07:26.364Z,32.62
2023-04-05T10:10:29.160Z,32.85
2023-04-05T10:13:31.002Z,32.97
2023-04-05T10:16:36.574Z,33.17
2023-04-05T10:19:53.044Z,33.23
2023-04-05T10:23:11.633Z,33.29
2023-04-05T10:26:36.987Z,33.17
2023-04-05T10:30:03.674Z,33.44
2023-04-05T10:33:38.873Z,33.65
2023-04-05T10:36:58.559Z,33.25
2023-04-05T10:40:04.365Z,33.34
2023-04-05T10:43:11.974Z,34.15
2023-04-05T10:46:22.363Z,33.75
2023-04-05T10:49:29.838Z,33.68
2023-04-05T10:52:32.991Z,33.57
2023-04-05T10:55:36.043Z,33.73
2023-04-05T10:58:40.559Z,33.18
2023-04-05T11:01:42.582Z,33.22
2023-04-05T11:04:44.353Z,33.51
2023-04-05T11:07:49.611Z,33.13
2023-04-05T11:10:53.264Z,33.25
2023-04-05T11:13:56.924Z,32.95
2023-04-05T11:16:59.696Z,32.75
2023-04-05T11:20:06.206Z,32.12
2023-04-05T11:23:08.376Z,31.17
2023-04-05T11:26:10.200Z,31.79
2023-04-05T11:29:12.123Z,31.77
2023-04-05T11:32:13.982Z,31.87
2023-04-05T11:35:23.278Z,32.29
2023-04-05T11:38:24.791Z,31.92
2023-04-05T11:41:33.491Z,31.72
2023-04-05T11:44:46.798Z,31.15
2023-04-05T11:47:48.373Z,31.39
2023-04-05T11:50:51.225Z,31.64
2023-04-05T11:53:58.902Z,32.36
2023-04-05T11:57:03.838Z,32.46
2023-04-05T12:00:07.858Z,32.60
2023-04-05T12:03:17.074Z,34.35
2023-04-05T12:06:22.572Z,35.63
2023-04-05T12:09:30.059Z,34.05
2023-04-05T12:12:36.388Z,35.33
2023-04-05T12:15:40.809Z,35.79
2023-04-05T12:18:42.548Z,35.98
2023-04-05T12:21:44.228Z,35.66
2023-04-05T12:24:46.005Z,35.95
2023-04-05T12:27:47.888Z,35.53
2023-04-05T12:30:54.227Z,34.66
2023-04-05T12:33:59.357Z,34.62
2023-04-05T12:37:03.096Z,35.18
2023-04-05T12:40:05.437Z,35.18
2023-04-05T12:43:08.428Z,35.24
2023-04-05T12:46:17.590Z,34.46
2023-04-05T12:49:19.290Z,34.25
2023-04-05T12:52:23.649Z,33.92
2023-04-05T12:55:27.146Z,34.66
2023-04-05T12:58:37.920Z,34.52
2023-04-05T13:01:39.442Z,34.42
2023-04-05T13:04:40.960Z,33.76
2023-04-05T13:07:42.403Z,33.69
2023-04-05T13:10:46.158Z,31.77
2023-04-05T13:13:47.625Z,32.14
2023-04-05T13:16:49.045Z,32.17
2023-04-05T13:19:50.580Z,32.15
2023-04-05T13:22:52.105Z,32.34
2023-04-05T13:25:53.548Z,31.61
2023-04-05T13:28:55.446Z,31.49
2023-04-05T13:31:56.926Z,31.29
2023-04-05T13:34:58.420Z,31.24
2023-04-05T13:38:03.879Z,31.25
2023-04-05T13:41:06.253Z,31.46
2023-04-05T13:44:07.730Z,31.28
2023-04-05T13:47:09.357Z,31.42
2023-04-05T13:50:10.908Z,30.82
2023-04-05T13:53:12.424Z,31.35
2023-04-05T13:56:13.889Z,31.69
2023-04-05T13:59:17.057Z,31.79
2023-04-05T14:02:20.664Z,31.71
2023-04-05T14:05:22.177Z,31.80
2023-04-05T14:08:23.691Z,30.74
2023-04-05T14:11:25.889Z,30.55
2023-04-05T14:14:27.811Z,31.27
2023-04-05T14:17:29.452Z,30.99
2023-04-05T14:20:31.084Z,31.00
2023-04-05T14:23:32.996Z,31.06
2023-04-05T14:26:34.573Z,30.87
2023-04-05T14:29:36.100Z,30.76
2023-04-05T14:32:37.794Z,30.60
2023-04-05T14:35:39.556Z,30.92
2023-04-05T14:38:41.272Z,30.89
2023-04-05T14:41:44.018Z,30.06
2023-04-05T14:44:45.746Z,28.90
2023-04-05T14:47:47.446Z,27.79
2023-04-05T14:50:49.036Z,27.37
2023-04-05T14:53:51.509Z,27.70
2023-04-05T14:56:53.031Z,28.87
2023-04-05T14:59:54.650Z,29.36
2023-04-05T15:02:56.383Z,29.71
2023-04-05T15:05:58.377Z,30.30
2023-04-05T15:08:59.870Z,30.38
2023-04-05T15:12:02.238Z,30.41
2023-04-05T15:15:04.186Z,30.32
2023-04-05T15:18:07.891Z,30.15
2023-04-05T15:21:09.569Z,30.19
2023-04-05T15:24:11.583Z,30.62
2023-04-05T15:27:13.056Z,30.83
2023-04-05T15:30:14.932Z,29.97
2023-04-05T15:33:17.569Z,29.64
2023-04-05T15:36:19.090Z,29.00
2023-04-05T15:39:21.105Z,27.43
2023-04-05T15:42:22.828Z,24.33
2023-04-05T15:45:24.361Z,23.32
2023-04-05T15:48:25.881Z,22.53
2023-04-05T15:51:27.459Z,20.42
2023-04-05T15:54:28.951Z,20.39
2023-04-05T15:57:30.700Z,19.91
2023-04-05T16:00:33.447Z,19.69
2023-04-05T16:03:35.020Z,18.70
2023-04-05T16:06:36.686Z,18.32
2023-04-05T16:09:38.213Z,18.39
2023-04-05T16:12:39.779Z,18.31
2023-04-05T16:15:41.364Z,17.71
2023-04-05T16:18:43.034Z,17.75
2023-04-05T16:21:44.574Z,17.57
2023-04-05T16:24:46.130Z,17.63
2023-04-05T16:27:47.756Z,17.12
2023-04-05T16:30:51.606Z,17.02
2023-04-05T16:33:53.732Z,16.61
2023-04-05T16:36:55.354Z,16.51
2023-04-05T16:39:56.953Z,16.58
2023-04-05T16:42:58.557Z,16.64
2023-04-05T16:46:00.248Z,16.67
2023-04-05T16:49:02.091Z,16.86
2023-04-05T16:52:03.899Z,17.07
2023-04-05T16:55:05.804Z,17.32
2023-04-05T16:58:07.491Z,17.32
2023-04-05T17:01:09.116Z,16.85
2023-04-05T17:04:10.880Z,17.29
2023-04-05T17:07:12.489Z,17.65
2023-04-05T17:10:14.108Z,18.14
2023-04-05T17:13:15.981Z,17.99
2023-04-05T17:16:18.167Z,18.54
2023-04-05T17:19:19.839Z,18.67
2023-04-05T17:22:21.374Z,19.02
2023-04-05T17:25:22.881Z,20.18
2023-04-05T17:28:25.727Z,20.67
2023-04-05T17:31:27.557Z,20.74
2023-04-05T17:34:29.098Z,21.66
2023-04-05T17:37:30.596Z,22.98
2023-04-05T17:40:32.247Z,26.08
2023-04-05T17:43:33.796Z,28.19
2023-04-05T17:46:42.910Z,28.61
2023-04-05T17:49:46.193Z,29.85
2023-04-05T17:52:47.787Z,31.87
2023-04-05T17:55:49.241Z,33.05
2023-04-05T17:58:50.895Z,34.30
2023-04-05T18:01:53.738Z,35.53
2023-04-05T18:04:55.458Z,35.85
2023-04-05T18:07:57.100Z,36.00
2023-04-05T18:10:59.778Z,36.46
2023-04-05T18:14:01.395Z,36.47
2023-04-05T18:17:06.821Z,36.45
2023-04-05T18:20:08.839Z,37.23
2023-04-05T18:23:10.613Z,37.62
2023-04-05T18:26:14.277Z,38.68
2023-04-05T18:29:16.231Z,39.78
2023-04-05T18:32:17.957Z,39.92
2023-04-05T18:35:19.626Z,40.11
2023-04-05T18:38:21.704Z,41.64
2023-04-05T18:41:23.378Z,42.24
2023-04-05T18:44:24.963Z,42.43
2023-04-05T18:47:26.771Z,42.69
2023-04-05T18:50:28.350Z,42.13
2023-04-05T18:53:29.860Z,43.37
2023-04-05T18:56:31.457Z,42.96
2023-04-05T18:59:33.006Z,43.48
2023-04-05T19:02:34.642Z,43.46
2023-04-05T19:05:36.250Z,43.64
2023-04-05T19:08:37.924Z,43.97
2023-04-05T19:11:39.447Z,44.61
2023-04-05T19:14:42.462Z,44.89
2023-04-05T19:17:44.133Z,44.84
2023-04-05T19:20:45.951Z,45.02
2023-04-05T19:23:47.574Z,45.75
2023-04-05T19:26:49.105Z,45.39
2023-04-05T19:29:50.703Z,45.38
2023-04-05T19:32:53.878Z,45.87
2023-04-05T19:35:57.507Z,45.86
2023-04-05T19:38:59.246Z,46.09
2023-04-05T19:42:00.785Z,46.14
2023-04-05T19:45:02.338Z,46.01
2023-04-05T19:48:27.644Z,46.08
2023-04-05T19:51:29.315Z,45.50
2023-04-05T19:54:31.082Z,45.14
2023-04-05T19:57:42.202Z,45.78
2023-04-05T20:00:52.463Z,45.44
2023-04-05T20:03:54.312Z,45.33
2023-04-05T20:06:56.180Z,45.96
2023-04-05T20:09:57.760Z,45.49
2023-04-05T20:12:59.295Z,45.64
2023-04-05T20:16:00.944Z,45.81
2023-04-05T20:19:02.503Z,45.97
2023-04-05T20:22:07.080Z,46.18
2023-04-05T20:25:38.763Z,46.67
2023-04-05T20:28:41.960Z,46.54
2023-04-05T20:31:43.783Z,46.54
2023-04-05T20:34:46.104Z,46.52
2023-04-05T20:37:49.740Z,46.74
2023-04-05T20:40:51.554Z,46.42
2023-04-05T20:43:54.432Z,46.61
2023-04-05T20:46:57.756Z,47.00
2023-04-05T20:50:00.628Z,47.52
2023-04-05T20:53:05.667Z,47.73
2023-04-05T20:56:10.281Z,47.95
2023-04-05T20:59:12.514Z,48.00
2023-04-05T21:02:14.257Z,48.33
2023-04-05T21:05:15.813Z,47.91
2023-04-05T21:08:17.548Z,48.14
2023-04-05T21:11:19.145Z,47.65
2023-04-05T21:14:20.892Z,47.60
2023-04-05T21:17:22.398Z,47.75
2023-04-05T21:20:23.937Z,48.02
2023-04-05T21:23:27.221Z,47.80
2023-04-05T21:26:28.802Z,47.97
2023-04-05T21:29:30.372Z,48.19
2023-04-05T21:32:32.051Z,48.28
2023-04-05T21:35:34.064Z,48.86
2023-04-05T21:38:35.853Z,48.86
2023-04-05T21:41:37.308Z,48.58
2023-04-05T21:44:38.805Z,48.39
2023-04-05T21:47:40.379Z,49.20
2023-04-05T21:50:42.011Z,48.98
2023-04-05T21:53:43.497Z,49.36
2023-04-05T21:56:46.054Z,48.80
2023-04-05T21:59:47.611Z,49.23
2023-04-05T22:02:49.114Z,49.38
2023-04-05T22:05:50.697Z,49.63
2023-04-05T22:08:53.754Z,50.22
2023-04-05T22:11:56.987Z,50.35
2023-04-05T22:14:58.603Z,50.37
2023-04-05T22:18:00.268Z,49.80
2023-04-05T22:21:01.910Z,50.65
2023-04-05T22:24:03.700Z,50.68
2023-04-05T22:27:05.189Z,50.69
2023-04-05T22:30:08.181Z,50.51
2023-04-05T22:33:12.574Z,50.00
2023-04-05T22:36:14.558Z,50.54
2023-04-05T22:39:16.281Z,50.44
2023-04-05T22:42:17.846Z,50.76
2023-04-05T22:45:19.384Z,50.57
2023-04-05T22:48:21.075Z,51.29
2023-04-05T22:51:22.583Z,50.87
2023-04-05T22:54:24.107Z,51.24
2023-04-05T22:57:25.645Z,51.08
2023-04-05T23:00:27.171Z,50.76
2023-04-05T23:03:28.883Z,50.97
2023-04-05T23:06:31.048Z,51.05
2023-04-05T23:09:32.545Z,51.47
2023-04-05T23:12:34.086Z,51.08
2023-04-05T23:15:35.708Z,51.56
2023-04-05T23:18:37.332Z,51.46
2023-04-05T23:21:38.926Z,52.09
2023-04-05T23:24:40.540Z,52.29
2023-04-05T23:27:42.055Z,51.89
2023-04-05T23:30:43.684Z,52.55
2023-04-05T23:33:45.310Z,53.07
2023-04-05T23:36:46.864Z,52.69
2023-04-05T23:39:48.400Z,52.54
2023-04-05T23:42:50.531Z,53.02
2023-04-05T23:45:52.099Z,52.37
2023-04-05T23:48:53.653Z,52.68
2023-04-05T23:51:55.793Z,52.23
2023-04-05T23:54:57.269Z,52.91
2023-04-05T23:58:00.124Z,52.55
